Antelope Valley, Nevada Weather observations

Data are for 10 minute period ending at time listed.
 Day   Time   Solar   Ave.   Ave.  Ave.  Vector  Max.   Baro.   Total    
  of    of     Rad.   Air    Rel.  Wind   Wind   Wind  Press.  Precip.   
Year   Day            Temp.  Hum.  Speed  Dir.   Gust                    
2014   (PST)  Kw/m2    F      %     mph   deg.    mph    mb.     in.     
-------------------------------------------------------------------------
 211    8:30   0.59   76.5    40    0.7   148     1.5   857.0    0.00 
 211    8:40   0.62   77.6    37    0.7   127     1.9   856.9    0.00 
 211    8:50   0.65   77.5    35    1.4    86     2.6   856.9    0.00 
 211    9:00   0.67   77.9    34    1.2    99     2.8   856.9    0.00 
 211    9:10   0.70   78.3    33    1.8    80     4.3   856.9    0.00 
 211    9:20   0.72   78.9    34    1.9   126     3.6   856.9    0.00 
 211    9:30   0.74   79.9    30    2.6    55     6.0   856.8    0.00 
 211    9:40   0.77   80.5    28    2.6    58     5.8   856.8    0.00 
 211    9:50   0.79   81.3    27    2.7    64     5.1   856.8    0.00 
 211   10:00   0.81   82.4    25    2.1    36     5.8   856.8    0.00 
 211   10:10   0.82   82.8    25    3.6    51     6.6   856.8    0.00 
 211   10:20   0.84   82.9    25    2.7    65     6.1   857.0    0.00 
 211   10:30   0.86   82.9    26    3.6    59     8.1   857.1    0.00 
 211   10:40   0.88   83.4    26    2.6    44     5.2   857.0    0.00 
 211   10:50   0.87   83.0    27    3.7    90     7.6   856.9    0.00 
 211   11:00   0.92   83.7    25    5.6    32     9.9   856.9    0.00 
 211   11:10   0.75   84.1    26    3.6    33     8.2   856.8    0.00 
 211   11:20   0.76   84.0    25    4.4    57     7.7   856.8    0.00 
 211   11:30   0.80   84.1    25    6.1    30    11.2   856.8    0.00 
 211   11:40   0.69   84.4    25    4.3    52    10.0   856.7    0.00 
 211   11:50   0.58   84.8    23    2.5    23     5.6   856.6    0.00 
 211   12:00   0.85   85.2    24    3.7    68     7.6   856.5    0.00 
 211   12:10   0.99   85.9    23    4.3    53     7.5   856.4    0.00 
 211   12:20   0.79   86.4    24    6.1    38    11.2   856.3    0.00 
 211   12:30   0.82   86.3    22    5.0    21    10.0   856.2    0.00 
 211   12:40   0.84   85.9    25    5.6   335    11.8   856.1    0.00 
 211   12:50   0.65   85.6    25    7.3     3    13.9   856.1    0.00 
 211   13:00   0.46   85.4    24    4.4    45     9.1   856.1    0.00 
 211   13:10   0.56   85.2    25    4.2    39     7.7   855.9    0.00 
 211   13:20   0.91   86.7    21    5.6    49     8.5   855.8    0.00 
 211   13:30   0.76   87.3    20    4.2    68    10.4   855.6    0.00 
 211   13:40   0.91   87.9    21    5.5    31    10.2   855.5    0.00 
 211   13:50   0.89   88.5    19    4.8    52    11.7   855.5    0.00 
 211   14:00   0.67   87.7    24    5.6    38     9.3   855.3    0.00 
 211   14:10   0.69   87.5    22    3.3   342     6.1   855.2    0.00 
 211   14:20   0.55   87.7    22    4.3    44     7.2   855.0    0.00 
 211   14:30   0.35   86.0    23    5.4    26    10.3   854.9    0.00 
 211   14:40   0.41   86.1    20    1.8   349     4.5   854.8    0.00 
 211   14:50   0.49   86.5    20    6.0   356    11.9   854.8    0.00 
 211   15:00   0.53   86.7    21    5.5    14    10.5   854.7    0.00 
 211   15:10   0.60   87.4    20    6.4    20    11.5   854.7    0.00 
 211   15:20   0.58   87.0    19    5.3   351    11.2   854.7    0.00 
 211   15:30   0.51   88.6    19    3.3   331    10.0   854.6    0.00 
 211   15:40   0.57   86.1    23    5.4   323     8.3   854.5    0.00 
 211   15:50   0.55   87.6    20    5.6   350    13.3   854.4    0.00 
 211   16:00   0.43   86.3    23    7.6   347    11.9   854.4    0.00 
 211   16:10   0.36   84.2    25    8.0   345    12.4   854.4    0.00 
 211   16:20   0.40   84.1    24    7.2   358    12.6   854.4    0.00 
 211   16:30   0.30   85.4    22    6.3    20    10.3   854.2    0.00 
 211   16:40   0.22   85.4    21    5.1    18    12.4   854.2    0.00 
 211   16:50   0.21   83.4    29    4.6    40    12.0   854.1    0.00 
 211   17:00   0.16   81.4    32    6.1    47     8.3   854.0    0.00 
 211   17:10   0.12   81.1    32    5.0    40     6.9   853.9    0.00 
 211   17:20   0.10   81.1    31    4.7    32     7.5   853.9    0.00 
 211   17:30   0.09   79.2    36    4.5    44     5.7   853.9    0.00 
 211   17:40   0.09   78.7    35    3.2    29     4.4   853.9    0.00 
 211   17:50   0.08   79.3    32    3.4    43     5.6   853.9    0.00 
 211   18:00   0.07   79.1    33    2.7    30     5.2   853.9    0.00 
 211   18:10   0.06   79.0    35    2.9    49     5.2   853.9    0.00 
 211   18:20   0.04   77.4    38    2.9    36     3.7   853.8    0.00 
 211   18:30   0.03   76.9    42    2.0    61     3.5   853.8    0.00 
 211   18:40   0.02   75.5    46    1.6    87     3.2   853.7    0.00 
 211   18:50   0.02   75.6    38    2.0    22     3.2   853.7    0.00 
 211   19:00   0.01   76.3    36    0.6    68     1.7   853.7    0.00 
 211   19:10   0.00   75.2    38    1.5   163     2.3   853.8    0.00 
 211   19:20   0.00   75.5    34    2.7   160     3.5   853.9    0.00 
 211   19:30   0.00   71.4    46    4.0   138     5.1   854.0    0.00 
 211   19:40   0.00   70.6    46    4.8   170     6.1   854.2    0.00 
 211   19:50   0.00   69.9    49    4.5   158     6.1   854.3    0.00 
 211   20:00   0.00   70.6    43    4.8   144     7.0   854.5    0.00 
 211   20:10   0.00   70.7    40    8.2   183    14.0   854.7    0.00 
 211   20:20   0.00   74.8    31   11.6   205    15.8   854.9    0.00 
 211   20:30   0.00   75.3    30   11.7   216    16.7   854.9    0.00 
 211   20:40   0.00   74.9    32   10.1   213    15.9   855.0    0.00 
 211   20:50   0.00   73.2    37    8.5   202    12.1   855.1    0.00 
 211   21:00   0.00   73.0    37    8.6   206    12.9   855.1    0.00 
 211   21:10   0.00   72.1    41    7.3   198     9.4   855.2    0.00 
 211   21:20   0.00   71.5    42    8.2   198    10.4   855.2    0.00 
 211   21:30   0.00   71.6    41    7.9   206    10.6   855.2    0.00 
 211   21:40   0.00   71.0    43    7.3   208     9.6   855.2    0.00 
 211   21:50   0.00   68.9    51    5.7   199     7.1   855.3    0.00 
 211   22:00   0.00   67.0    56    5.1   218     6.2   855.4    0.00 
 211   22:10   0.00   64.4    63    5.4   221     6.9   855.6    0.00 
 211   22:20   0.00   65.2    59    6.1   210     7.5   855.7    0.00 
 211   22:30   0.00   64.6    58    6.5   184     7.2   855.8    0.00 
 211   22:40   0.00   65.5    53    7.0   176     8.0   855.8    0.00 
 211   22:50   0.00   66.1    51    6.3   184     8.8   855.8    0.00 
 211   23:00   0.00   65.9    52    5.5   187     7.2   855.9    0.00 
 211   23:10   0.00   65.5    53    5.6   182     7.1   856.0    0.00 
 211   23:20   0.00   66.2    51    6.1   185     7.2   855.9    0.00 
 211   23:30   0.00   66.6    50    5.9   180     6.6   855.8    0.00 
 211   23:40   0.00   65.9    52    6.0   181     7.1   855.8    0.00 
 211   23:50   0.00   67.1    48    6.9   173     8.9   855.8    0.00 
 212    0:00   0.00   68.1    46    6.9   176     8.0   855.8    0.00 
 212    0:10   0.00   67.3    48    6.8   187     8.0   855.8    0.00 
 212    0:20   0.00   66.3    51    5.5   186     6.6   855.8    0.00 
 212    0:30   0.00   65.8    51    5.9   184     7.2   855.8    0.00 
 212    0:40   0.00   66.2    50    5.0   188     6.6   855.8    0.00 
 212    0:50   0.00   65.9    49    3.4   244     5.6   855.8    0.00 
 212    1:00   0.00   65.2    51    3.1   252     4.1   855.8    0.00 
 212    1:10   0.00   64.5    56    4.3   224     5.4   855.8    0.00 
 212    1:20   0.00   64.9    56    4.3   240     5.6   855.8    0.00 
 212    1:30   0.00   64.5    57    3.3   233     4.7   855.8    0.00 
 212    1:40   0.00   64.1    59    2.8   195     4.7   855.8    0.00 
 212    1:50   0.00   64.8    53    3.9   186     5.0   855.8    0.00 
 212    2:00   0.00   65.0    56    1.2   161     3.2   855.8    0.00 
 212    2:10   0.00   65.0    50    2.3   239     3.2   855.8    0.00 
 212    2:20   0.00   65.1    51    4.0   218     5.2   855.8    0.00 
 212    2:30   0.00   63.1    58    3.8   241     4.6   855.7    0.00 
 212    2:40   0.00   63.0    59    2.3   212     3.9   855.7    0.00 
 212    2:50   0.00   63.2    52    1.3   172     2.0   855.7    0.00 
 212    3:00   0.00   64.6    49    1.3   209     2.5   855.7    0.00 
 212    3:10   0.00   64.4    47    2.3   194     3.1   855.8    0.00 
 212    3:20   0.00   63.4    56    0.8   227     2.4   855.8    0.00 
 212    3:30   0.00   62.1    58    2.0   218     3.2   855.8    0.00 
 212    3:40   0.00   62.8    51    2.0   275     2.5   855.8    0.00 
 212    3:50   0.00   62.1    56    2.6   282     4.1   855.8    0.00 
 212    4:00   0.00   62.4    53    2.3   240     3.6   855.8    0.00 
 212    4:10   0.00   63.2    50    1.1   206     2.4   855.8    0.00 
 212    4:20   0.00   62.3    59    0.7   206     1.8   855.7    0.00 
 212    4:30   0.00   61.2    66    0.7    96     2.0   855.8    0.00 
 212    4:40   0.00   60.3    65    1.7   338     3.9   855.8    0.00 
 212    4:50   0.00   59.8    63    0.8   332     3.1   855.8    0.00 
 212    5:00   0.01   60.1    62    1.1   289     2.6   855.8    0.00 
 212    5:10   0.02   60.0    65    1.9   335     3.4   855.8    0.00 
 212    5:20   0.03   59.3    69    1.4    27     2.5   855.9    0.00 
 212    5:30   0.06   60.1    64    0.3    23     1.4   855.9    0.00 
 212    5:40   0.06   61.2    63    1.3    38     2.9   855.9    0.00 
 212    5:50   0.08   61.0    69    1.2   107     2.9   855.9    0.00 
 212    6:00   0.12   62.1    74    0.1   110     0.9   855.9    0.00 
 212    6:10   0.10   62.8    68    0.5   182     1.8   855.8    0.00 
 212    6:20   0.11   63.1    71    1.9   251     3.0   855.9    0.00 
 212    6:30   0.10   63.2    71    2.7   213     3.4   856.0    0.00 
 212    6:40   0.12   63.9    71    2.9   188     3.4   856.0    0.00 
 212    6:50   0.18   65.0    69    2.3   192     2.9   856.0    0.00 
 212    7:00   0.20   67.0    66    3.4   215     4.5   856.0    0.00 
 212    7:10   0.21   67.6    68    2.6   225     3.4   855.9    0.00 
 212    7:20   0.26   68.5    62    3.3   227     4.5   855.8    0.00 
 212    7:30   0.33   70.2    55    2.8   234     4.5   855.8    0.00 
 212    7:40   0.21   70.7    56    2.7   247     4.0   855.8    0.00 
 212    7:50   0.20   70.3    53    4.3   278     5.2   855.8    0.00 
 212    8:00   0.20   70.3    51    3.6   282     5.2   855.8    0.00 
 212    8:10   0.23   70.7    52    3.5   257     4.7   855.7    0.00 
 212    8:20   0.27   71.7    52    2.3   245     3.1   855.7    0.00 

Return to Antelope Valley graphs page.


Western Regional Climate Center,wrcc@dri.edu